createdAt,value
2019-03-22T06:34:55.804Z,225.00
2019-03-22T06:35:56.039Z,230.63
2019-03-22T06:38:00.237Z,241.88
2019-03-22T06:39:00.450Z,247.50
2019-03-22T06:41:04.603Z,247.50
2019-03-22T06:42:04.835Z,247.50
2019-03-22T06:44:09.011Z,258.75
2019-03-22T06:45:09.252Z,264.38
2019-03-22T06:47:13.401Z,275.63
2019-03-22T06:48:13.638Z,281.25
2019-03-22T06:50:17.816Z,298.13
2019-03-22T06:51:18.050Z,298.13
2019-03-22T06:53:22.228Z,315.00
2019-03-22T06:54:31.589Z,326.25
2019-03-22T06:56:26.618Z,343.13
2019-03-22T06:57:26.853Z,343.13
2019-03-22T06:59:19.963Z,360.00
2019-03-22T07:00:20.199Z,371.25
2019-03-22T07:02:24.350Z,365.63
2019-03-22T07:03:24.587Z,360.00
2019-03-22T07:05:28.760Z,393.75
2019-03-22T07:06:28.998Z,416.25
2019-03-22T07:08:33.176Z,461.25
2019-03-22T07:09:33.411Z,455.63
2019-03-22T07:11:37.563Z,472.50
2019-03-22T07:12:37.799Z,534.38
2019-03-22T07:14:41.984Z,551.25
2019-03-22T07:15:42.294Z,540.00
2019-03-22T07:17:46.394Z,618.75
2019-03-22T07:18:46.633Z,680.63
2019-03-22T07:20:50.786Z,736.88
2019-03-22T07:21:51.032Z,826.88
2019-03-22T07:23:55.208Z,815.63
2019-03-22T07:24:55.447Z,871.88
2019-03-22T07:26:59.610Z,866.25
2019-03-22T07:27:59.852Z,866.25
2019-03-22T07:30:04.037Z,793.13
2019-03-22T07:31:04.275Z,736.88
2019-03-22T07:33:08.450Z,753.75
2019-03-22T07:34:08.690Z,708.75
2019-03-22T07:36:12.850Z,736.88
2019-03-22T07:37:13.091Z,759.38
2019-03-22T07:39:06.199Z,855.00
2019-03-22T07:40:06.442Z,821.25
2019-03-22T07:42:10.601Z,793.13
2019-03-22T07:43:10.843Z,753.75
2019-03-22T07:45:15.023Z,793.13
2019-03-22T07:46:16.025Z,776.25
2019-03-22T07:48:19.520Z,753.75
2019-03-22T07:49:19.763Z,714.38
2019-03-22T07:51:23.932Z,793.13
2019-03-22T07:52:24.170Z,776.25
2019-03-22T07:54:28.358Z,804.38
2019-03-22T07:55:28.600Z,776.25
2019-03-22T07:57:32.767Z,905.63
2019-03-22T07:58:33.010Z,804.38
2019-03-22T08:00:37.196Z,967.50
2019-03-22T08:01:37.438Z,950.63
2019-03-22T08:03:41.634Z,815.63
2019-03-22T08:04:41.872Z,753.75
2019-03-22T08:06:46.039Z,832.50
2019-03-22T08:07:46.283Z,815.63
2019-03-22T08:09:39.440Z,776.25
2019-03-22T08:10:39.673Z,815.63
2019-03-22T08:12:43.815Z,860.63
2019-03-22T08:13:44.085Z,888.75
2019-03-22T08:15:48.294Z,826.88
2019-03-22T08:16:48.510Z,781.88
2019-03-22T08:18:52.696Z,798.75
2019-03-22T08:19:52.941Z,838.13
2019-03-22T08:21:57.112Z,866.25
2019-03-22T08:22:57.358Z,843.75
2019-03-22T08:25:01.584Z,888.75
2019-03-22T08:26:01.797Z,916.88
2019-03-22T08:28:05.999Z,900.00
2019-03-22T08:29:06.230Z,815.63
2019-03-22T08:31:10.426Z,821.25
2019-03-22T08:32:10.663Z,849.38
2019-03-22T08:34:14.922Z,883.13
2019-03-22T08:35:15.104Z,877.50
2019-03-22T08:37:19.273Z,866.25
2019-03-22T08:38:19.519Z,967.50
2019-03-22T08:40:23.721Z,905.63
2019-03-22T08:41:24.143Z,905.63
2019-03-22T08:43:28.175Z,1035.00
2019-03-22T08:44:28.408Z,1029.38
2019-03-22T08:46:32.602Z,1035.00
2019-03-22T08:47:34.173Z,1029.38
2019-03-22T08:49:26.019Z,1068.75
2019-03-22T08:50:26.195Z,1035.00
2019-03-22T08:52:30.369Z,1130.63
2019-03-22T08:53:30.621Z,1170.00
2019-03-22T08:55:34.824Z,1164.38
2019-03-22T08:56:36.202Z,1136.25
2019-03-22T08:58:39.267Z,1260.00
2019-03-22T08:59:39.517Z,1316.25
2019-03-22T09:01:43.693Z,1175.63
2019-03-22T09:02:43.969Z,1198.13
2019-03-22T09:04:48.198Z,1125.00
2019-03-22T09:05:48.403Z,1158.75
2019-03-22T09:07:52.592Z,1096.88
2019-03-22T09:08:52.867Z,1096.88
2019-03-22T09:10:57.043Z,1085.63
2019-03-22T09:11:57.332Z,1125.00
2019-03-22T09:14:01.497Z,1192.50
2019-03-22T09:15:01.799Z,1254.38
2019-03-22T09:17:05.927Z,1147.50
2019-03-22T09:18:06.182Z,1237.50
2019-03-22T09:20:10.427Z,1175.63
2019-03-22T09:21:10.634Z,1192.50
2019-03-22T09:23:14.836Z,1147.50
2019-03-22T09:24:15.061Z,1158.75
2019-03-22T09:26:20.126Z,1215.00
2019-03-22T09:27:19.518Z,1243.13
2019-03-22T09:29:12.684Z,1192.50
2019-03-22T09:30:12.904Z,1254.38
2019-03-22T09:32:17.096Z,1310.63
2019-03-22T09:33:17.336Z,1355.63
2019-03-22T09:35:21.542Z,1299.38
2019-03-22T09:36:21.836Z,1344.38
2019-03-22T09:38:28.516Z,1378.13
2019-03-22T09:39:26.246Z,1406.25
2019-03-22T09:41:30.440Z,1389.38
2019-03-22T09:42:30.694Z,1338.75
2019-03-22T09:44:43.086Z,1423.13
2019-03-22T09:45:35.178Z,1434.38
2019-03-22T09:47:39.362Z,1411.88
2019-03-22T09:48:39.591Z,1445.63
2019-03-22T09:50:43.810Z,1451.25
2019-03-22T09:51:44.050Z,1451.25
2019-03-22T09:53:48.254Z,1473.75
2019-03-22T09:54:48.516Z,1479.38
2019-03-22T09:56:52.723Z,1501.88
2019-03-22T09:57:52.965Z,1636.88
2019-03-22T09:59:57.160Z,3391.88
2019-03-22T10:00:57.438Z,3611.25
2019-03-22T10:03:01.608Z,3594.38
2019-03-22T10:04:01.857Z,3684.38
2019-03-22T10:06:06.068Z,3774.38
2019-03-22T10:07:06.321Z,3841.88
2019-03-22T10:09:02.644Z,3836.25
2019-03-22T10:09:59.692Z,3813.75
2019-03-22T10:12:03.929Z,3819.38
2019-03-22T10:13:04.155Z,3847.50
2019-03-22T10:15:08.368Z,3954.38
2019-03-22T10:16:08.678Z,4066.88
2019-03-22T10:18:12.823Z,4207.50
2019-03-22T10:19:13.132Z,4235.63
2019-03-22T10:21:22.485Z,4246.88
2019-03-22T10:22:17.537Z,4291.88
2019-03-22T10:24:21.744Z,4342.50
2019-03-22T10:25:22.087Z,4359.38
2019-03-22T10:27:26.234Z,4393.13
2019-03-22T10:28:26.481Z,4398.75
2019-03-22T10:30:30.686Z,4404.38
2019-03-22T10:31:37.139Z,4393.13
2019-03-22T10:33:35.122Z,4404.38
2019-03-22T10:34:35.367Z,4426.88
2019-03-22T10:36:39.580Z,4432.50
2019-03-22T10:37:39.977Z,4438.13
2019-03-22T10:39:32.984Z,4477.50
2019-03-22T10:40:33.251Z,4449.38
2019-03-22T10:42:37.460Z,4415.63
2019-03-22T10:43:37.677Z,4404.38
2019-03-22T10:45:41.920Z,4387.50
2019-03-22T10:46:42.162Z,4387.50
2019-03-22T10:48:46.389Z,4404.38
2019-03-22T10:49:46.569Z,4410.00
2019-03-22T10:51:56.808Z,4438.13
2019-03-22T10:52:51.074Z,4460.63
2019-03-22T10:54:55.294Z,4460.63
2019-03-22T10:55:55.491Z,4477.50
2019-03-22T10:57:59.675Z,4421.25
2019-03-22T10:58:59.929Z,4415.63
2019-03-22T11:01:04.136Z,4415.63
2019-03-22T11:02:07.535Z,4393.13
2019-03-22T11:05:08.838Z,4426.88
2019-03-22T11:07:13.046Z,4449.38
2019-03-22T11:08:13.309Z,4477.50
2019-03-22T11:10:17.503Z,4449.38
2019-03-22T11:11:17.757Z,4455.00
2019-03-22T11:13:21.939Z,4483.13
2019-03-22T11:14:22.196Z,4494.38
2019-03-22T11:16:26.401Z,4567.50
2019-03-22T11:17:26.663Z,4657.50
2019-03-22T11:19:19.765Z,4651.88
2019-03-22T11:20:20.021Z,4640.63
2019-03-22T11:22:24.240Z,4573.13
2019-03-22T11:23:24.479Z,4511.25
2019-03-22T11:25:28.687Z,4325.63
2019-03-22T11:26:28.937Z,4365.00
2019-03-22T11:28:33.119Z,4516.88
2019-03-22T11:29:33.376Z,4663.13
2019-03-22T11:31:40.185Z,4786.88
2019-03-22T11:32:37.839Z,4809.38
2019-03-22T11:34:42.048Z,4820.63
2019-03-22T11:35:42.304Z,4809.38
2019-03-22T11:37:46.489Z,5017.50
2019-03-22T11:38:46.742Z,5175.00
2019-03-22T11:40:50.953Z,5011.88
2019-03-22T11:41:51.206Z,5040.00
2019-03-22T11:43:55.402Z,4905.00
2019-03-22T11:44:55.650Z,4860.00
2019-03-22T11:46:59.857Z,5107.50
2019-03-22T11:48:00.612Z,4848.75
2019-03-22T11:50:04.317Z,4691.25
2019-03-22T11:51:04.574Z,4764.38
2019-03-22T11:53:08.763Z,4837.50
2019-03-22T11:54:09.015Z,4792.50
2019-03-22T11:56:13.223Z,4708.13
2019-03-22T11:57:13.475Z,4730.63
2019-03-22T11:59:06.626Z,4629.38
2019-03-22T12:00:06.846Z,4601.25
2019-03-22T12:02:11.055Z,4516.88
2019-03-22T12:03:11.307Z,4483.13
2019-03-22T12:05:15.518Z,4421.25
2019-03-22T12:06:15.771Z,4421.25
2019-03-22T12:08:19.964Z,4387.50
2019-03-22T12:09:20.210Z,4483.13
2019-03-22T12:11:24.468Z,4511.25
2019-03-22T12:12:24.682Z,4550.63
2019-03-22T12:14:28.866Z,4528.13
2019-03-22T12:15:29.122Z,4545.00
2019-03-22T12:17:33.336Z,4505.63
2019-03-22T12:18:33.594Z,4460.63
2019-03-22T12:20:37.801Z,4460.63
2019-03-22T12:21:38.059Z,4455.00
2019-03-22T12:23:42.245Z,4483.13
2019-03-22T12:24:42.502Z,4381.88
2019-03-22T12:26:46.711Z,4488.75
2019-03-22T12:27:48.477Z,4500.00
2019-03-22T12:29:40.074Z,4511.25
2019-03-22T12:30:40.331Z,4455.00
2019-03-22T12:32:44.539Z,4533.75
2019-03-22T12:33:44.800Z,4573.13
2019-03-22T12:35:49.498Z,4500.00
2019-03-22T12:36:49.756Z,4466.25
2019-03-22T12:38:53.949Z,4455.00
2019-03-22T12:39:54.204Z,4291.88
2019-03-22T12:41:58.415Z,4213.13
2019-03-22T12:42:58.669Z,4218.75
2019-03-22T12:45:02.877Z,4106.25
2019-03-22T12:46:03.131Z,4111.88
2019-03-22T12:48:07.321Z,4140.00
2019-03-22T12:49:07.572Z,4173.75
2019-03-22T12:51:11.778Z,4320.00
2019-03-22T12:52:12.033Z,4336.88
2019-03-22T12:54:16.216Z,4269.38
2019-03-22T12:55:16.469Z,4123.13
2019-03-22T12:57:20.726Z,3903.75
2019-03-22T12:58:21.099Z,3830.63
2019-03-22T13:00:25.324Z,3684.38
2019-03-22T13:01:25.605Z,3701.25
2019-03-22T13:03:29.794Z,3813.75
2019-03-22T13:04:30.081Z,3892.50
2019-03-22T13:06:34.377Z,4072.50
2019-03-22T13:07:34.698Z,4168.13
2019-03-22T13:09:28.865Z,4095.00
2019-03-22T13:10:29.178Z,4027.50
2019-03-22T13:12:22.831Z,3931.88
2019-03-22T13:13:23.071Z,3864.38
2019-03-22T13:15:27.366Z,3065.63
2019-03-22T13:16:27.659Z,1968.75
2019-03-22T13:18:33.281Z,1164.38
2019-03-22T13:19:33.170Z,1136.25
2019-03-22T13:21:37.571Z,1108.13
2019-03-22T13:22:37.725Z,1091.25
2019-03-22T13:24:41.997Z,1046.25
2019-03-22T13:25:42.355Z,1035.00
2019-03-22T13:27:46.591Z,1023.75
2019-03-22T13:28:46.886Z,1012.50
2019-03-22T13:30:51.104Z,1001.25
2019-03-22T13:31:51.433Z,1012.50
2019-03-22T13:33:55.614Z,1006.88
2019-03-22T13:34:55.899Z,1006.88
2019-03-22T13:37:01.081Z,1012.50
2019-03-22T13:38:01.334Z,1023.75
2019-03-22T13:40:05.521Z,1035.00
2019-03-22T13:41:05.762Z,1035.00
2019-03-22T13:43:09.988Z,1046.25
2019-03-22T13:44:10.263Z,1051.88
2019-03-22T13:46:14.556Z,1051.88
2019-03-22T13:47:14.810Z,1063.13
2019-03-22T13:49:07.924Z,1091.25
2019-03-22T13:50:08.205Z,1096.88
2019-03-22T13:52:14.248Z,1130.63
2019-03-22T13:53:12.690Z,1147.50
2019-03-22T13:55:16.883Z,1170.00
2019-03-22T13:56:17.142Z,1198.13
2019-03-22T13:58:21.440Z,1305.00
2019-03-22T13:59:21.796Z,1400.63
2019-03-22T14:01:26.006Z,2784.38
2019-03-22T14:02:26.257Z,3285.00
2019-03-22T14:04:30.457Z,3375.00
2019-03-22T14:05:30.705Z,3431.25
2019-03-22T14:07:35.928Z,3504.38
2019-03-22T14:08:36.179Z,3498.75
2019-03-22T14:10:40.388Z,3448.13
2019-03-22T14:11:40.644Z,3425.63
2019-03-22T14:13:44.850Z,3431.25
2019-03-22T14:14:45.110Z,3420.00
2019-03-22T14:16:49.327Z,3397.50
2019-03-22T14:17:49.580Z,3386.25
2019-03-22T14:19:42.701Z,3358.13
2019-03-22T14:20:42.952Z,3330.00
2019-03-22T14:22:47.164Z,3290.63
2019-03-22T14:23:47.417Z,3268.13
2019-03-22T14:25:51.628Z,3262.50
2019-03-22T14:26:51.893Z,3245.63
2019-03-22T14:28:56.263Z,3228.75
2019-03-22T14:29:56.519Z,3206.25
2019-03-22T14:32:00.731Z,3099.38
2019-03-22T14:33:00.984Z,3043.13
2019-03-22T14:35:05.172Z,2925.00
2019-03-22T14:36:05.423Z,2891.25
2019-03-22T14:38:09.633Z,2851.88
2019-03-22T14:39:09.887Z,2863.13
2019-03-22T14:41:14.102Z,2891.25
2019-03-22T14:42:14.351Z,2925.00
2019-03-22T14:44:25.251Z,2896.88
2019-03-22T14:45:18.777Z,2885.63
2019-03-22T14:47:22.987Z,2846.25
2019-03-22T14:48:23.239Z,2818.13
2019-03-22T14:50:27.429Z,2745.00
2019-03-22T14:51:27.680Z,2733.75
2019-03-22T14:53:31.882Z,2705.63
2019-03-22T14:54:32.132Z,2683.13
2019-03-22T14:56:37.347Z,2666.25
2019-03-22T14:57:47.869Z,2643.75
2019-03-22T14:59:30.727Z,2570.63
2019-03-22T15:00:30.982Z,2520.00
2019-03-22T15:02:35.189Z,2497.50
2019-03-22T15:03:35.432Z,2503.13
2019-03-22T15:05:39.613Z,2520.00
2019-03-22T15:06:39.864Z,2525.63
2019-03-22T15:08:44.067Z,2486.25
2019-03-22T15:09:46.235Z,2458.13
2019-03-22T15:11:48.523Z,2368.13
2019-03-22T15:12:48.772Z,2323.13
2019-03-22T15:14:52.957Z,2255.63
2019-03-22T15:15:53.209Z,2227.50
2019-03-22T15:17:57.416Z,2199.38
2019-03-22T15:18:57.660Z,2182.50
2019-03-22T15:21:01.839Z,2115.00
2019-03-22T15:22:02.090Z,2098.13
2019-03-22T15:24:06.293Z,2058.75
2019-03-22T15:25:06.542Z,2047.50
2019-03-22T15:27:10.745Z,2030.63
2019-03-22T15:28:10.995Z,2013.75
2019-03-22T15:30:15.175Z,1974.38
2019-03-22T15:31:15.422Z,1946.25
2019-03-22T15:33:19.657Z,1906.88
2019-03-22T15:34:19.874Z,1861.88
2019-03-22T15:36:24.109Z,1811.25
2019-03-22T15:37:24.453Z,1805.63
2019-03-22T15:39:17.600Z,1777.50
2019-03-22T15:40:17.718Z,1760.63
2019-03-22T15:42:21.919Z,1738.13
2019-03-22T15:43:22.168Z,1715.63
2019-03-22T15:45:26.347Z,1653.75
2019-03-22T15:46:26.595Z,1636.88
2019-03-22T15:48:30.796Z,1614.38
2019-03-22T15:49:31.047Z,1586.25
2019-03-22T15:51:35.261Z,1535.63
2019-03-22T15:52:35.507Z,1507.50
2019-03-22T15:54:40.693Z,1456.88
2019-03-22T15:55:40.945Z,1428.75
2019-03-22T15:57:45.154Z,1383.75
2019-03-22T15:58:45.401Z,1361.25
2019-03-22T16:00:49.583Z,1305.00
2019-03-22T16:01:49.837Z,1293.75
2019-03-22T16:03:54.040Z,1260.00
2019-03-22T16:04:54.287Z,1248.75
2019-03-22T16:06:59.501Z,1237.50
2019-03-22T16:07:59.746Z,1209.38
2019-03-22T16:10:03.922Z,793.13
2019-03-22T16:11:04.169Z,1153.13
2019-03-22T16:13:08.369Z,1096.88
2019-03-22T16:14:08.617Z,1080.00
2019-03-22T16:16:12.794Z,1046.25
2019-03-22T16:17:13.047Z,1035.00
2019-03-22T16:19:06.194Z,1012.50
2019-03-22T16:20:06.441Z,990.00
2019-03-22T16:22:10.639Z,911.25
2019-03-22T16:23:10.888Z,883.13
2019-03-22T16:25:15.066Z,843.75
2019-03-22T16:26:15.311Z,832.50
2019-03-22T16:28:19.508Z,787.50
2019-03-22T16:29:19.756Z,770.63
2019-03-22T16:31:23.927Z,742.50
2019-03-22T16:32:24.177Z,731.25
2019-03-22T16:34:28.373Z,680.63
2019-03-22T16:35:28.623Z,658.13
2019-03-22T16:37:32.817Z,613.13
2019-03-22T16:38:33.062Z,590.63
2019-03-22T16:40:37.231Z,545.63
2019-03-22T16:41:37.477Z,534.38
2019-03-22T16:43:41.681Z,500.63
2019-03-22T16:44:41.928Z,483.75
2019-03-22T16:46:46.101Z,450.00
2019-03-22T16:47:46.352Z,433.13
2019-03-22T16:49:39.477Z,410.63
2019-03-22T16:50:39.721Z,399.38
2019-03-22T16:52:43.921Z,376.88
2019-03-22T16:53:44.168Z,360.00
2019-03-22T16:55:48.339Z,331.88
2019-03-22T16:56:48.592Z,320.63
2019-03-22T16:58:52.786Z,292.50
2019-03-22T16:59:53.035Z,275.63
2019-03-22T17:01:57.209Z,247.50
2019-03-22T17:02:57.454Z,230.63
2019-03-22T17:05:01.649Z,213.75
2019-03-22T17:06:01.899Z,202.50
2019-03-22T17:08:06.089Z,180.00
2019-03-22T17:09:06.339Z,163.13
2019-03-22T17:11:10.517Z,151.88
2019-03-22T17:12:10.759Z,140.63
2019-03-22T17:14:14.956Z,118.13
2019-03-22T17:15:15.201Z,112.50
2019-03-22T17:17:19.374Z,101.25
2019-03-22T17:18:19.620Z,95.63
2019-03-22T17:20:23.814Z,84.38
2019-03-22T17:21:24.064Z,78.75
2019-03-22T17:23:28.272Z,67.50
2019-03-22T17:24:28.513Z,61.88
2019-03-22T17:26:32.686Z,50.63
2019-03-22T17:27:32.933Z,45.00
2019-03-22T17:29:26.052Z,33.75
2019-03-22T17:30:26.296Z,28.13
2019-03-22T17:32:30.475Z,22.50
2019-03-22T17:33:31.511Z,22.50
2019-03-22T17:35:34.978Z,16.88
2019-03-22T17:36:35.223Z,16.88
2019-03-22T17:38:39.413Z,11.25
2019-03-22T17:39:39.665Z,11.25
2019-03-22T17:41:43.826Z,11.25
2019-03-22T17:42:44.071Z,5.63
2019-03-22T17:44:48.268Z,5.63
2019-03-22T17:45:48.513Z,5.63
2019-03-22T17:47:52.701Z,5.63
2019-03-22T17:48:52.944Z,5.63
2019-03-22T17:50:57.121Z,0.00
2019-03-22T17:51:57.363Z,0.00
2019-03-22T17:54:01.552Z,0.00
2019-03-22T17:55:01.799Z,0.00
2019-03-22T17:57:05.968Z,0.00
2019-03-22T17:58:06.215Z,0.00
2019-03-22T18:00:10.402Z,0.00
2019-03-22T18:01:10.644Z,0.00
2019-03-22T18:03:14.831Z,0.00
2019-03-22T18:04:23.816Z,0.00
2019-03-22T18:06:19.236Z,0.00
2019-03-22T18:07:19.483Z,0.00
2019-03-22T18:09:12.594Z,0.00
2019-03-22T18:10:12.840Z,0.00
2019-03-22T18:12:17.006Z,0.00
2019-03-22T18:13:17.250Z,0.00
2019-03-22T18:15:21.438Z,0.00
2019-03-22T18:16:21.681Z,0.00
2019-03-22T18:18:25.857Z,0.00
2019-03-22T18:19:26.098Z,0.00
2019-03-22T18:21:30.261Z,0.00
2019-03-22T18:22:30.566Z,0.00
2019-03-22T18:24:34.758Z,0.00
2019-03-22T18:25:34.999Z,0.00
2019-03-22T18:27:39.161Z,0.00
2019-03-22T18:28:39.398Z,0.00
2019-03-22T18:30:43.582Z,0.00
2019-03-22T18:31:43.823Z,0.00
2019-03-22T18:33:48.006Z,0.00
2019-03-22T18:34:48.445Z,0.00
2019-03-22T18:36:52.375Z,0.00
2019-03-22T18:37:52.618Z,0.00
2019-03-22T18:39:45.725Z,0.00
2019-03-22T18:40:46.046Z,0.00
2019-03-22T18:42:50.273Z,0.00
2019-03-22T18:43:50.507Z,0.00
2019-03-22T18:45:54.694Z,0.00
2019-03-22T18:46:54.934Z,0.00
2019-03-22T18:48:59.182Z,0.00
2019-03-22T18:49:59.529Z,0.00
2019-03-22T18:52:03.716Z,0.00
2019-03-22T18:53:03.953Z,0.00
2019-03-22T18:55:08.132Z,0.00
2019-03-22T18:56:08.455Z,0.00
2019-03-22T18:58:12.690Z,0.00
2019-03-22T18:59:12.923Z,0.00
2019-03-22T19:01:17.592Z,0.00
2019-03-22T19:02:17.831Z,0.00
2019-03-22T19:04:22.045Z,0.00
2019-03-22T19:05:22.325Z,0.00
2019-03-22T19:07:26.494Z,0.00
2019-03-22T19:08:26.737Z,0.00
2019-03-22T19:10:30.974Z,0.00
2019-03-22T19:11:31.214Z,0.00
2019-03-22T19:13:35.391Z,0.00
2019-03-22T19:14:35.693Z,0.00
2019-03-22T19:16:39.889Z,0.00
2019-03-22T19:17:40.343Z,0.00
2019-03-22T19:19:33.348Z,0.00
2019-03-22T19:20:33.583Z,0.00
2019-03-22T19:22:38.754Z,0.00
2019-03-22T19:23:38.995Z,0.00
2019-03-22T19:25:43.175Z,0.00
2019-03-22T19:26:43.417Z,0.00
2019-03-22T19:28:47.600Z,0.00
2019-03-22T19:29:47.836Z,0.00
2019-03-22T19:31:51.995Z,0.00
2019-03-22T19:32:52.236Z,0.00
2019-03-22T19:34:56.414Z,0.00
2019-03-22T19:35:56.658Z,0.00
2019-03-22T19:38:00.823Z,0.00
2019-03-22T19:39:01.056Z,0.00
2019-03-22T19:41:05.236Z,0.00
2019-03-22T19:42:05.477Z,0.00
2019-03-22T19:44:09.658Z,0.00
2019-03-22T19:45:09.905Z,0.00
2019-03-22T19:47:14.064Z,0.00
2019-03-22T19:48:14.343Z,0.00
2019-03-22T19:50:18.487Z,0.00
2019-03-22T19:51:18.724Z,0.00
2019-03-22T19:53:22.898Z,0.00
2019-03-22T19:54:23.165Z,0.00
2019-03-22T19:56:27.303Z,0.00
2019-03-22T19:57:27.544Z,0.00
2019-03-22T19:59:20.651Z,0.00
2019-03-22T20:00:20.889Z,0.00
2019-03-22T20:02:25.045Z,0.00
2019-03-22T20:03:25.285Z,0.00
2019-03-22T20:05:29.463Z,0.00
2019-03-22T20:06:29.706Z,0.00
2019-03-22T20:08:33.882Z,0.00
2019-03-22T20:09:34.120Z,0.00
2019-03-22T20:11:38.307Z,0.00
2019-03-22T20:12:38.512Z,0.00
2019-03-22T20:14:43.698Z,0.00
2019-03-22T20:15:43.935Z,0.00
2019-03-22T20:17:48.094Z,0.00
2019-03-22T20:18:48.334Z,0.00
2019-03-22T20:20:52.682Z,0.00
2019-03-22T20:21:52.909Z,0.00
2019-03-22T20:23:57.277Z,0.00
2019-03-22T20:24:57.622Z,0.00
2019-03-22T20:27:01.811Z,0.00
2019-03-22T20:28:02.168Z,0.00
2019-03-22T20:30:06.362Z,0.00
2019-03-22T20:31:07.554Z,0.00
2019-03-22T20:33:10.837Z,0.00
2019-03-22T20:34:11.237Z,0.00
2019-03-22T20:36:15.602Z,0.00
2019-03-22T20:37:15.822Z,0.00
2019-03-22T20:39:08.931Z,0.00
2019-03-22T20:40:09.163Z,0.00
2019-03-22T20:42:13.334Z,0.00
2019-03-22T20:43:13.578Z,0.00
2019-03-22T20:45:23.998Z,0.00
2019-03-22T20:46:18.002Z,0.00
2019-03-22T20:48:22.161Z,0.00
2019-03-22T20:49:22.400Z,0.00
2019-03-22T20:51:26.781Z,0.00
2019-03-22T20:52:27.148Z,0.00
2019-03-22T20:54:31.337Z,0.00
2019-03-22T20:55:31.743Z,0.00
2019-03-22T20:57:36.495Z,0.00
2019-03-22T20:58:36.886Z,0.00
2019-03-22T21:00:41.250Z,0.00
2019-03-22T21:01:41.470Z,0.00
2019-03-22T21:03:45.786Z,0.00
2019-03-22T21:04:46.069Z,0.00
2019-03-22T21:06:50.271Z,0.00
2019-03-22T21:07:50.626Z,0.00
2019-03-22T21:09:43.863Z,0.00
2019-03-22T21:10:44.285Z,0.00
2019-03-22T21:12:48.463Z,0.00
2019-03-22T21:13:48.703Z,0.00
2019-03-22T21:15:52.996Z,0.00
2019-03-22T21:16:53.287Z,0.00
2019-03-22T21:18:57.623Z,0.00
2019-03-22T21:19:57.864Z,0.00
2019-03-22T21:22:02.112Z,0.00
2019-03-22T21:23:02.382Z,0.00
2019-03-22T21:25:06.697Z,0.00
2019-03-22T21:26:07.083Z,0.00
2019-03-22T21:28:11.243Z,0.00
2019-03-22T21:29:11.608Z,0.00
2019-03-22T21:31:15.794Z,0.00
2019-03-22T21:32:16.091Z,0.00
2019-03-22T21:34:20.272Z,0.00
2019-03-22T21:35:22.809Z,0.00
2019-03-22T21:37:24.837Z,0.00
2019-03-22T21:38:25.105Z,0.00
2019-03-22T21:40:29.284Z,0.00
2019-03-22T21:41:29.521Z,0.00
2019-03-22T21:43:33.734Z,0.00
2019-03-22T21:44:33.917Z,0.00
2019-03-22T21:46:38.092Z,0.00
2019-03-22T21:47:38.335Z,0.00
2019-03-22T21:49:31.434Z,0.00
2019-03-22T21:50:31.673Z,0.00
2019-03-22T21:52:35.823Z,0.00
2019-03-22T21:53:36.058Z,0.00
2019-03-22T21:55:40.238Z,0.00
2019-03-22T21:56:40.475Z,0.00
2019-03-22T21:58:44.684Z,0.00
2019-03-22T21:59:44.865Z,0.00
2019-03-22T22:01:49.044Z,0.00
2019-03-22T22:02:49.282Z,0.00
2019-03-22T22:04:53.455Z,0.00
2019-03-22T22:05:53.691Z,0.00
2019-03-22T22:07:57.841Z,0.00
2019-03-22T22:08:58.078Z,0.00
2019-03-22T22:11:02.256Z,0.00
2019-03-22T22:12:02.495Z,0.00
2019-03-22T22:14:06.673Z,0.00
2019-03-22T22:15:06.912Z,0.00
2019-03-22T22:17:11.075Z,0.00
2019-03-22T22:18:11.300Z,0.00
2019-03-22T22:20:15.483Z,0.00
2019-03-22T22:21:15.721Z,0.00
2019-03-22T22:23:19.906Z,0.00
2019-03-22T22:24:20.106Z,0.00
2019-03-22T22:26:24.279Z,0.00
2019-03-22T22:27:24.516Z,0.00
2019-03-22T22:29:17.615Z,0.00
2019-03-22T22:30:17.850Z,0.00
2019-03-22T22:32:22.003Z,0.00
2019-03-22T22:33:22.243Z,0.00
2019-03-22T22:35:26.435Z,0.00
2019-03-22T22:36:26.676Z,0.00
2019-03-22T22:38:30.827Z,0.00
2019-03-22T22:39:31.087Z,0.00
2019-03-22T22:41:35.240Z,0.00
2019-03-22T22:42:35.475Z,0.00
2019-03-22T22:44:39.653Z,0.00
2019-03-22T22:45:39.894Z,0.00
2019-03-22T22:47:44.047Z,0.00
2019-03-22T22:48:44.284Z,0.00
2019-03-22T22:50:48.458Z,0.00
2019-03-22T22:51:48.695Z,0.00
2019-03-22T22:53:52.847Z,0.00
2019-03-22T22:54:53.088Z,0.00
2019-03-22T22:56:57.259Z,0.00
2019-03-22T22:57:57.501Z,0.00
2019-03-22T23:00:01.677Z,0.00
2019-03-22T23:01:01.914Z,0.00
2019-03-22T23:03:06.065Z,0.00
2019-03-22T23:04:06.302Z,0.00
2019-03-22T23:06:10.483Z,0.00
2019-03-22T23:07:10.718Z,0.00
2019-03-22T23:09:03.799Z,0.00
2019-03-22T23:10:04.036Z,0.00
2019-03-22T23:12:08.215Z,0.00
2019-03-22T23:13:08.450Z,0.00
2019-03-22T23:15:12.627Z,0.00
2019-03-22T23:16:12.864Z,0.00
2019-03-22T23:18:17.020Z,0.00
2019-03-22T23:19:17.259Z,0.00
2019-03-22T23:21:21.436Z,0.00
2019-03-22T23:22:21.674Z,0.00
2019-03-22T23:24:25.828Z,0.00
2019-03-22T23:25:26.065Z,0.00
2019-03-22T23:27:30.246Z,0.00
2019-03-22T23:28:30.490Z,0.00
2019-03-22T23:30:34.664Z,0.00
2019-03-22T23:31:34.901Z,0.00
2019-03-22T23:33:39.056Z,0.00
2019-03-22T23:34:39.293Z,0.00
2019-03-22T23:36:43.468Z,0.00
2019-03-22T23:37:43.711Z,0.00
2019-03-22T23:39:36.826Z,0.00
2019-03-22T23:40:37.061Z,0.00
2019-03-22T23:42:41.216Z,0.00
2019-03-22T23:43:41.454Z,0.00
2019-03-22T23:45:45.628Z,0.00
2019-03-22T23:46:45.865Z,0.00
2019-03-22T23:48:50.022Z,0.00
2019-03-22T23:49:50.256Z,0.00
2019-03-22T23:51:54.433Z,0.00
2019-03-22T23:52:54.672Z,0.00
2019-03-22T23:54:58.858Z,0.00
2019-03-22T23:55:59.096Z,0.00
2019-03-22T23:58:03.263Z,0.00
2019-03-22T23:59:03.499Z,0.00
